Swinomish — WC5223 — position and weather

sailwx.info

Track history (hours):
 
Tides and Currents Weather Stations Pressure Air Temp Water Temp Dewpoint Dewpoint Depression Visibility Wind Speed Wind Dir Waves Ship Positions

Swinomish

Owner: DUNLAP TOWING CO, LA CONNER, WA. More information available from US FCC via Universal Licensing System and Coast Guard Vessel Documentation Center.

Last reported at 2016-May-23 21:22 UTC. Time now 2016-May-24 13:51 UTC.
Position N 48°11' W 122°33'.

Length 15 m; draft 3.5 m.

Type: Tug. MMSI: 366972050.

Date/timePositionNaut miles runAvg speedWind from/ knotsBaromVisibWave heightAir tempDewpointWater temp
2016-May-23 21:22N 48°11' W 122°33'911.1
2016-May-23 20:31N 48°04' W 122°24'1010.2
2016-May-23 19:33N 47°54' W 122°22'1111.4
2016-May-23 18:33N 47°43' W 122°26'1111.3
2016-May-23 17:33N 47°32' W 122°28'1312.6
2016-May-23 16:33N 47°19' W 122°33'1310.6
2016-May-23 15:19N 47°10' W 122°47'5 0.3
2016-May-22 23:33N 47°11' W 122°39'2 1.5
2016-May-22 22:33N 47°12' W 122°37'4 3.9
2016-May-22 21:33N 47°15' W 122°34'3 3.3
2016-May-22 20:33N 47°18' W 122°33'1 1.1
2016-May-22 19:33N 47°19' W 122°32'1 1.5
2016-May-22 18:33N 47°19' W 122°30'1 1.4
2016-May-22 17:33N 47°18' W 122°29'1 1.1
2016-May-22 16:33N 47°17' W 122°28'0 0.2
2016-May-22 15:33N 47°17' W 122°28'1 0.5
2016-May-22 14:33N 47°17' W 122°28'1 0.7
2016-May-22 13:33N 47°18' W 122°29'0 0.4
2016-May-22 12:33N 47°18' W 122°30'1 1.2
2016-May-22 11:33N 47°17' W 122°28'0 0.3
2016-May-22 10:33N 47°17' W 122°28'1 0.7
2016-May-22 09:33N 47°17' W 122°29'1 0.6
2016-May-22 08:33N 47°18' W 122°29'1 0.7
2016-May-22 07:33N 47°19' W 122°30'1 0.5
2016-May-22 06:33N 47°18' W 122°29'1 1.0
2016-May-22 05:33N 47°18' W 122°28'1 1.0
2016-May-22 04:33N 47°18' W 122°29'1 0.7
2016-May-22 03:33N 47°19' W 122°29'1 1.3
2016-May-22 02:33N 47°20' W 122°28'1 1.3
2016-May-22 01:33N 47°21' W 122°27'1 1.3
2016-May-22 00:33N 47°22' W 122°25'2 1.6
2016-May-21 23:33N 47°23' W 122°23'1 1.3
2016-May-21 22:33N 47°24' W 122°23'2 2.1
2016-May-21 21:33N 47°26' W 122°25'2 2.4
2016-May-21 20:33N 47°28' W 122°26'2 2.4
2016-May-21 19:33N 47°30' W 122°27'2 1.7
2016-May-21 18:33N 47°32' W 122°27'2 2.1
2016-May-21 17:33N 47°34' W 122°28'2 1.9
2016-May-21 16:33N 47°36' W 122°28'2 1.7
2016-May-21 15:33N 47°38' W 122°29'1 1.4
2016-May-21 14:33N 47°39' W 122°29'1 1.3
2016-May-21 13:33N 47°40' W 122°29'2 1.6
2016-May-21 12:33N 47°42' W 122°29'2 1.5
2016-May-21 11:33N 47°43' W 122°27'2 2.0
2016-May-21 10:34N 47°44' W 122°25'2 2.1
2016-May-21 09:34N 47°46' W 122°25'2 2.0
2016-May-21 08:33N 47°48' W 122°25'2 1.9
2016-May-21 07:33N 47°50' W 122°23'2 1.8
2016-May-21 06:33N 47°52' W 122°22'2 2.0
2016-May-21 05:33N 47°53' W 122°21'3 2.8
2016-May-21 04:33N 47°56' W 122°20'3 2.5
2016-May-21 03:33N 47°58' W 122°18'1 1.3
2016-May-21 02:33N 47°59' W 122°16'2 2.2
2016-May-21 01:32N 48°01' W 122°18'3 2.5
2016-May-21 00:30N 48°02' W 122°21'2 2.3
2016-May-20 23:33N 48°04' W 122°24'2 2.0
2016-May-20 22:33N 48°05' W 122°26'11 1.9
2016-May-20 16:30N 48°15' W 122°33'3 3.1
2016-May-20 15:33N 48°18' W 122°30'2 2.4
2016-May-20 14:33N 48°20' W 122°32'2 1.8
2016-May-20 13:26N 48°21' W 122°33'1 1.3
2016-May-20 12:33N 48°22' W 122°32'2 1.4
2016-May-20 11:23N 48°23' W 122°30'1 0.9
2016-May-20 10:33N 48°24' W 122°30'0 0.0
2016-May-20 09:30N 48°24' W 122°30'0 0.0
2016-May-20 08:33N 48°24' W 122°30'0 0.0
2016-May-20 07:33N 48°24' W 122°30'0 0.0
2016-May-20 06:33N 48°24' W 122°30'0 0.0
2016-May-20 05:33N 48°24' W 122°30'0 0.0
2016-May-20 04:33N 48°24' W 122°30'0 0.1
2016-May-20 03:33N 48°24' W 122°30'2 2.4
2016-May-20 02:32N 48°22' W 122°32'12 8.6
2016-May-20 01:05N 48°09' W 122°33'611.1
2016-May-20 00:33N 48°05' W 122°27'1010.0
2016-May-19 23:33N 47°59' W 122°15'7 6.5
2016-May-19 22:33N 47°54' W 122°21'7 7.4
2016-May-19 21:33N 47°55' W 122°32'6 1.4
2016-May-19 17:23N 48°00' W 122°36'7 7.9
2016-May-19 16:33N 47°56' W 122°29'6 5.6
2016-May-19 15:33N 47°56' W 122°21'6 5.7
2016-May-19 14:33N 47°59' W 122°13'0 0.2
2016-May-19 13:33N 47°59' W 122°13'0 0.0
2016-May-19 12:33N 47°59' W 122°13'0 0.0
2016-May-19 11:33N 47°59' W 122°13'0 0.0
2016-May-19 10:33N 47°59' W 122°13'0 0.0
2016-May-19 09:33N 47°59' W 122°13'0 0.0
2016-May-19 08:33N 47°59' W 122°13'0 0.0
2016-May-19 07:33N 47°59' W 122°13'0 0.0
2016-May-19 06:33N 47°59' W 122°13'0 0.0
2016-May-19 05:33N 47°59' W 122°13'0 0.0
2016-May-19 04:33N 47°59' W 122°13'0 0.0
2016-May-19 03:33N 47°59' W 122°13'0 0.0
2016-May-19 02:33N 47°59' W 122°13'0 0.0
2016-May-19 01:33N 47°59' W 122°13'0 0.0
2016-May-19 00:33N 47°59' W 122°13'0 0.0
2016-May-18 23:33N 47°59' W 122°13'0 0.0
2016-May-18 22:33N 47°59' W 122°13'0 0.0
2016-May-18 21:33N 47°59' W 122°13'4 4.1
2016-May-18 20:33N 47°57' W 122°19'1010.5
2016-May-18 19:33N 47°48' W 122°25'1110.7
2016-May-18 18:33N 47°37' W 122°28'1111.4
2016-May-18 17:33N 47°26' W 122°31'1312.6
2016-May-18 16:33N 47°14' W 122°35'4 0.3
2016-May-18 04:33N 47°11' W 122°39'2 1.7
2016-May-18 03:31N 47°13' W 122°38'2 1.9
2016-May-18 02:31N 47°14' W 122°40'1 0.3
2016-May-17 22:33N 47°14' W 122°39'2 0.6
2016-May-17 19:28N 47°13' W 122°36'3 3.2
2016-May-17 18:33N 47°15' W 122°34'3 3.1
2016-May-17 17:33N 47°18' W 122°33'1 1.3
2016-May-17 16:33N 47°19' W 122°32'2 1.6
2016-May-17 15:33N 47°18' W 122°30'1 1.1
2016-May-17 14:33N 47°17' W 122°29'1 1.2
2016-May-17 13:33N 47°18' W 122°30'1 0.9
2016-May-17 12:33N 47°18' W 122°29'1 1.0
2016-May-17 11:33N 47°17' W 122°28'0 0.2
2016-May-17 10:33N 47°17' W 122°28'1 1.2
2016-May-17 09:33N 47°18' W 122°29'1 0.8
2016-May-17 08:33N 47°18' W 122°30'1 1.3
2016-May-17 07:33N 47°19' W 122°29'1 1.4
2016-May-17 06:33N 47°20' W 122°27'2 2.3
2016-May-17 05:33N 47°22' W 122°25'2 2.1
2016-May-17 04:33N 47°23' W 122°22'2 1.7
2016-May-17 03:34N 47°24' W 122°24'2 1.7
2016-May-17 02:33N 47°26' W 122°25'2 1.6
2016-May-17 01:33N 47°27' W 122°26'1 1.4
2016-May-17 00:33N 47°29' W 122°26'1 1.4
2016-May-16 23:33N 47°30' W 122°27'2 1.6
2016-May-16 22:33N 47°32' W 122°27'2 1.7
2016-May-16 21:34N 47°33' W 122°28'2 2.0
2016-May-16 20:33N 47°35' W 122°28'2 1.9
2016-May-16 19:33N 47°37' W 122°29'2 2.1
2016-May-16 18:33N 47°39' W 122°29'2 1.8
2016-May-16 17:33N 47°41' W 122°29'2 1.8
2016-May-16 16:33N 47°43' W 122°29'2 1.7
2016-May-16 15:34N 47°44' W 122°28'2 1.9
2016-May-16 14:33N 47°46' W 122°27'1 1.3
2016-May-16 13:34N 47°47' W 122°25'1 1.3
2016-May-16 12:33N 47°48' W 122°25'2 1.7
2016-May-16 11:33N 47°50' W 122°24'2 2.2
2016-May-16 10:33N 47°52' W 122°22'2 2.5
2016-May-16 09:33N 47°54' W 122°21'2 2.2
2016-May-16 08:33N 47°56' W 122°20'2 2.0
2016-May-16 07:33N 47°58' W 122°18'2 2.0
2016-May-16 06:32N 47°58' W 122°15'1 1.3
2016-May-16 05:33N 47°59' W 122°13'0 0.1
2016-May-16 04:33N 47°59' W 122°13'0 0.0
2016-May-16 03:33N 47°59' W 122°13'0 0.0
2016-May-16 02:33N 47°59' W 122°13'0 0.0
2016-May-16 01:33N 47°59' W 122°13'0 0.0
2016-May-16 00:34N 47°59' W 122°13'0 0.0
2016-May-15 23:33N 47°59' W 122°13'0 0.0
2016-May-15 22:32N 47°59' W 122°13'0 0.0
2016-May-15 21:33N 47°59' W 122°13'0 0.0
2016-May-15 20:33N 47°59' W 122°13'0 0.0
2016-May-15 19:25N 47°59' W 122°13'0 0.0
2016-May-15 18:33N 47°59' W 122°13'0 0.1
2016-May-15 17:33N 47°59' W 122°13'0 0.1
2016-May-15 16:33N 47°59' W 122°13'0 0.0
2016-May-15 15:33N 47°59' W 122°13'0 0.0
2016-May-15 14:33N 47°59' W 122°13'0 0.0
2016-May-15 13:33N 47°59' W 122°13'0 0.0
2016-May-15 12:33N 47°59' W 122°13'0 0.0
2016-May-15 11:33N 47°59' W 122°13'0 0.0
2016-May-15 10:33N 47°59' W 122°13'9 9.1
2016-May-15 09:33N 48°04' W 122°25'1210.4
2016-May-15 08:22N 48°15' W 122°34'7 7.8
2016-May-15 07:32N 48°21' W 122°33'4 3.6
2016-May-15 06:33N 48°24' W 122°30'0 0.0
2016-May-15 05:33N 48°24' W 122°30'0 0.0
2016-May-15 04:33N 48°24' W 122°30'0 0.0
2016-May-15 03:33N 48°24' W 122°30'0 0.0
2016-May-15 02:33N 48°24' W 122°30'0 0.0
2016-May-15 01:33N 48°24' W 122°30'2 2.3
2016-May-15 00:29N 48°22' W 122°32'5 5.5
2016-May-14 23:32N 48°24' W 122°39'3 2.6
2016-May-14 22:17N 48°26' W 122°34'6 5.8
2016-May-14 21:17N 48°20' W 122°32'15 8.2
2016-May-14 19:27N 48°05' W 122°27'8 9.2
2016-May-14 18:33N 48°01' W 122°17'3 2.9
2016-May-14 17:33N 47°59' W 122°13'1 0.7
2016-May-14 16:33N 47°59' W 122°14'1 1.1
2016-May-14 15:33N 47°59' W 122°15'2 2.1
2016-May-14 14:33N 48°01' W 122°17'2 2.2
2016-May-14 13:27N 48°02' W 122°20'2 2.4
2016-May-14 12:31N 48°03' W 122°23'2 2.5
2016-May-14 11:33N 48°05' W 122°26'10 2.1
2016-May-14 06:31N 48°14' W 122°33'2 1.6
2016-May-14 05:32N 48°15' W 122°32'1 1.3
2016-May-14 04:33N 48°16' W 122°31'1 1.2
2016-May-14 03:33N 48°18' W 122°30'1 1.2
2016-May-14 02:33N 48°19' W 122°30'3 3.0
2016-May-14 01:25N 48°21' W 122°34'4 2.0
2016-May-13 23:23N 48°24' W 122°38'1 1.4
2016-May-13 22:33N 48°24' W 122°39'0 0.4
2016-May-13 21:33N 48°25' W 122°40'  
Track history (hours):
 
Tides and Currents Weather Stations Pressure Air Temp Water Temp Dewpoint Dewpoint Depression Visibility Wind Speed Wind Dir Waves Ship Positions

Swinomish

Owner: DUNLAP TOWING CO, LA CONNER, WA. More information available from US FCC via Universal Licensing System and Coast Guard Vessel Documentation Center.

Last reported at 2016-May-23 21:22 UTC. Time now 2016-May-24 13:51 UTC.
Position N 48°11' W 122°33'.

Length 15 m; draft 3.5 m.

Type: Tug. MMSI: 366972050.

Date/timePositionNaut miles runAvg speedWind from/ knotsBaromVisibWave heightAir tempDewpointWater temp
2016-May-23 21:22N 48°11' W 122°33'911.1
2016-May-23 20:31N 48°04' W 122°24'1010.2
2016-May-23 19:33N 47°54' W 122°22'1111.4
2016-May-23 18:33N 47°43' W 122°26'1111.3
2016-May-23 17:33N 47°32' W 122°28'1312.6
2016-May-23 16:33N 47°19' W 122°33'1310.6
2016-May-23 15:19N 47°10' W 122°47'5 0.3
2016-May-22 23:33N 47°11' W 122°39'2 1.5
2016-May-22 22:33N 47°12' W 122°37'4 3.9
2016-May-22 21:33N 47°15' W 122°34'3 3.3
2016-May-22 20:33N 47°18' W 122°33'1 1.1
2016-May-22 19:33N 47°19' W 122°32'1 1.5
2016-May-22 18:33N 47°19' W 122°30'1 1.4
2016-May-22 17:33N 47°18' W 122°29'1 1.1
2016-May-22 16:33N 47°17' W 122°28'0 0.2
2016-May-22 15:33N 47°17' W 122°28'1 0.5
2016-May-22 14:33N 47°17' W 122°28'1 0.7
2016-May-22 13:33N 47°18' W 122°29'0 0.4
2016-May-22 12:33N 47°18' W 122°30'1 1.2
2016-May-22 11:33N 47°17' W 122°28'0 0.3
2016-May-22 10:33N 47°17' W 122°28'1 0.7
2016-May-22 09:33N 47°17' W 122°29'1 0.6
2016-May-22 08:33N 47°18' W 122°29'1 0.7
2016-May-22 07:33N 47°19' W 122°30'1 0.5
2016-May-22 06:33N 47°18' W 122°29'1 1.0
2016-May-22 05:33N 47°18' W 122°28'1 1.0
2016-May-22 04:33N 47°18' W 122°29'1 0.7
2016-May-22 03:33N 47°19' W 122°29'1 1.3
2016-May-22 02:33N 47°20' W 122°28'1 1.3
2016-May-22 01:33N 47°21' W 122°27'1 1.3
2016-May-22 00:33N 47°22' W 122°25'2 1.6
2016-May-21 23:33N 47°23' W 122°23'1 1.3
2016-May-21 22:33N 47°24' W 122°23'2 2.1
2016-May-21 21:33N 47°26' W 122°25'2 2.4
2016-May-21 20:33N 47°28' W 122°26'2 2.4
2016-May-21 19:33N 47°30' W 122°27'2 1.7
2016-May-21 18:33N 47°32' W 122°27'2 2.1
2016-May-21 17:33N 47°34' W 122°28'2 1.9
2016-May-21 16:33N 47°36' W 122°28'2 1.7
2016-May-21 15:33N 47°38' W 122°29'1 1.4
2016-May-21 14:33N 47°39' W 122°29'1 1.3
2016-May-21 13:33N 47°40' W 122°29'2 1.6
2016-May-21 12:33N 47°42' W 122°29'2 1.5
2016-May-21 11:33N 47°43' W 122°27'2 2.0
2016-May-21 10:34N 47°44' W 122°25'2 2.1
2016-May-21 09:34N 47°46' W 122°25'2 2.0
2016-May-21 08:33N 47°48' W 122°25'2 1.9
2016-May-21 07:33N 47°50' W 122°23'2 1.8
2016-May-21 06:33N 47°52' W 122°22'2 2.0
2016-May-21 05:33N 47°53' W 122°21'3 2.8
2016-May-21 04:33N 47°56' W 122°20'3 2.5
2016-May-21 03:33N 47°58' W 122°18'1 1.3
2016-May-21 02:33N 47°59' W 122°16'2 2.2
2016-May-21 01:32N 48°01' W 122°18'3 2.5
2016-May-21 00:30N 48°02' W 122°21'2 2.3
2016-May-20 23:33N 48°04' W 122°24'2 2.0
2016-May-20 22:33N 48°05' W 122°26'11 1.9
2016-May-20 16:30N 48°15' W 122°33'3 3.1
2016-May-20 15:33N 48°18' W 122°30'2 2.4
2016-May-20 14:33N 48°20' W 122°32'2 1.8
2016-May-20 13:26N 48°21' W 122°33'1 1.3
2016-May-20 12:33N 48°22' W 122°32'2 1.4
2016-May-20 11:23N 48°23' W 122°30'1 0.9
2016-May-20 10:33N 48°24' W 122°30'0 0.0
2016-May-20 09:30N 48°24' W 122°30'0 0.0
2016-May-20 08:33N 48°24' W 122°30'0 0.0
2016-May-20 07:33N 48°24' W 122°30'0 0.0
2016-May-20 06:33N 48°24' W 122°30'0 0.0
2016-May-20 05:33N 48°24' W 122°30'0 0.0
2016-May-20 04:33N 48°24' W 122°30'0 0.1
2016-May-20 03:33N 48°24' W 122°30'2 2.4
2016-May-20 02:32N 48°22' W 122°32'12 8.6
2016-May-20 01:05N 48°09' W 122°33'611.1
2016-May-20 00:33N 48°05' W 122°27'1010.0
2016-May-19 23:33N 47°59' W 122°15'7 6.5
2016-May-19 22:33N 47°54' W 122°21'7 7.4
2016-May-19 21:33N 47°55' W 122°32'6 1.4
2016-May-19 17:23N 48°00' W 122°36'7 7.9
2016-May-19 16:33N 47°56' W 122°29'6 5.6
2016-May-19 15:33N 47°56' W 122°21'6 5.7
2016-May-19 14:33N 47°59' W 122°13'0 0.2
2016-May-19 13:33N 47°59' W 122°13'0 0.0
2016-May-19 12:33N 47°59' W 122°13'0 0.0
2016-May-19 11:33N 47°59' W 122°13'0 0.0
2016-May-19 10:33N 47°59' W 122°13'0 0.0
2016-May-19 09:33N 47°59' W 122°13'0 0.0
2016-May-19 08:33N 47°59' W 122°13'0 0.0
2016-May-19 07:33N 47°59' W 122°13'0 0.0
2016-May-19 06:33N 47°59' W 122°13'0 0.0
2016-May-19 05:33N 47°59' W 122°13'0 0.0
2016-May-19 04:33N 47°59' W 122°13'0 0.0
2016-May-19 03:33N 47°59' W 122°13'0 0.0
2016-May-19 02:33N 47°59' W 122°13'0 0.0
2016-May-19 01:33N 47°59' W 122°13'0 0.0
2016-May-19 00:33N 47°59' W 122°13'0 0.0
2016-May-18 23:33N 47°59' W 122°13'0 0.0
2016-May-18 22:33N 47°59' W 122°13'0 0.0
2016-May-18 21:33N 47°59' W 122°13'4 4.1
2016-May-18 20:33N 47°57' W 122°19'1010.5
2016-May-18 19:33N 47°48' W 122°25'1110.7
2016-May-18 18:33N 47°37' W 122°28'1111.4
2016-May-18 17:33N 47°26' W 122°31'1312.6
2016-May-18 16:33N 47°14' W 122°35'4 0.3
2016-May-18 04:33N 47°11' W 122°39'2 1.7
2016-May-18 03:31N 47°13' W 122°38'2 1.9
2016-May-18 02:31N 47°14' W 122°40'1 0.3
2016-May-17 22:33N 47°14' W 122°39'2 0.6
2016-May-17 19:28N 47°13' W 122°36'3 3.2
2016-May-17 18:33N 47°15' W 122°34'3 3.1
2016-May-17 17:33N 47°18' W 122°33'1 1.3
2016-May-17 16:33N 47°19' W 122°32'2 1.6
2016-May-17 15:33N 47°18' W 122°30'1 1.1
2016-May-17 14:33N 47°17' W 122°29'1 1.2
2016-May-17 13:33N 47°18' W 122°30'1 0.9
2016-May-17 12:33N 47°18' W 122°29'1 1.0
2016-May-17 11:33N 47°17' W 122°28'0 0.2
2016-May-17 10:33N 47°17' W 122°28'1 1.2
2016-May-17 09:33N 47°18' W 122°29'1 0.8
2016-May-17 08:33N 47°18' W 122°30'1 1.3
2016-May-17 07:33N 47°19' W 122°29'1 1.4
2016-May-17 06:33N 47°20' W 122°27'2 2.3
2016-May-17 05:33N 47°22' W 122°25'2 2.1
2016-May-17 04:33N 47°23' W 122°22'2 1.7
2016-May-17 03:34N 47°24' W 122°24'2 1.7
2016-May-17 02:33N 47°26' W 122°25'2 1.6
2016-May-17 01:33N 47°27' W 122°26'1 1.4
2016-May-17 00:33N 47°29' W 122°26'1 1.4
2016-May-16 23:33N 47°30' W 122°27'2 1.6
2016-May-16 22:33N 47°32' W 122°27'2 1.7
2016-May-16 21:34N 47°33' W 122°28'2 2.0
2016-May-16 20:33N 47°35' W 122°28'2 1.9
2016-May-16 19:33N 47°37' W 122°29'2 2.1
2016-May-16 18:33N 47°39' W 122°29'2 1.8
2016-May-16 17:33N 47°41' W 122°29'2 1.8
2016-May-16 16:33N 47°43' W 122°29'2 1.7
2016-May-16 15:34N 47°44' W 122°28'2 1.9
2016-May-16 14:33N 47°46' W 122°27'1 1.3
2016-May-16 13:34N 47°47' W 122°25'1 1.3
2016-May-16 12:33N 47°48' W 122°25'2 1.7
2016-May-16 11:33N 47°50' W 122°24'2 2.2
2016-May-16 10:33N 47°52' W 122°22'2 2.5
2016-May-16 09:33N 47°54' W 122°21'2 2.2
2016-May-16 08:33N 47°56' W 122°20'2 2.0
2016-May-16 07:33N 47°58' W 122°18'2 2.0
2016-May-16 06:32N 47°58' W 122°15'1 1.3
2016-May-16 05:33N 47°59' W 122°13'0 0.1
2016-May-16 04:33N 47°59' W 122°13'0 0.0
2016-May-16 03:33N 47°59' W 122°13'0 0.0
2016-May-16 02:33N 47°59' W 122°13'0 0.0
2016-May-16 01:33N 47°59' W 122°13'0 0.0
2016-May-16 00:34N 47°59' W 122°13'0 0.0
2016-May-15 23:33N 47°59' W 122°13'0 0.0
2016-May-15 22:32N 47°59' W 122°13'0 0.0
2016-May-15 21:33N 47°59' W 122°13'0 0.0
2016-May-15 20:33N 47°59' W 122°13'0 0.0
2016-May-15 19:25N 47°59' W 122°13'0 0.0
2016-May-15 18:33N 47°59' W 122°13'0 0.1
2016-May-15 17:33N 47°59' W 122°13'0 0.1
2016-May-15 16:33N 47°59' W 122°13'0 0.0
2016-May-15 15:33N 47°59' W 122°13'0 0.0
2016-May-15 14:33N 47°59' W 122°13'0 0.0
2016-May-15 13:33N 47°59' W 122°13'0 0.0
2016-May-15 12:33N 47°59' W 122°13'0 0.0
2016-May-15 11:33N 47°59' W 122°13'0 0.0
2016-May-15 10:33N 47°59' W 122°13'9 9.1
2016-May-15 09:33N 48°04' W 122°25'1210.4
2016-May-15 08:22N 48°15' W 122°34'7 7.8
2016-May-15 07:32N 48°21' W 122°33'4 3.6
2016-May-15 06:33N 48°24' W 122°30'0 0.0
2016-May-15 05:33N 48°24' W 122°30'0 0.0
2016-May-15 04:33N 48°24' W 122°30'0 0.0
2016-May-15 03:33N 48°24' W 122°30'0 0.0
2016-May-15 02:33N 48°24' W 122°30'0 0.0
2016-May-15 01:33N 48°24' W 122°30'2 2.3
2016-May-15 00:29N 48°22' W 122°32'5 5.5
2016-May-14 23:32N 48°24' W 122°39'3 2.6
2016-May-14 22:17N 48°26' W 122°34'6 5.8
2016-May-14 21:17N 48°20' W 122°32'15 8.2
2016-May-14 19:27N 48°05' W 122°27'8 9.2
2016-May-14 18:33N 48°01' W 122°17'3 2.9
2016-May-14 17:33N 47°59' W 122°13'1 0.7
2016-May-14 16:33N 47°59' W 122°14'1 1.1
2016-May-14 15:33N 47°59' W 122°15'2 2.1
2016-May-14 14:33N 48°01' W 122°17'2 2.2
2016-May-14 13:27N 48°02' W 122°20'2 2.4
2016-May-14 12:31N 48°03' W 122°23'2 2.5
2016-May-14 11:33N 48°05' W 122°26'10 2.1
2016-May-14 06:31N 48°14' W 122°33'2 1.6
2016-May-14 05:32N 48°15' W 122°32'1 1.3
2016-May-14 04:33N 48°16' W 122°31'1 1.2
2016-May-14 03:33N 48°18' W 122°30'1 1.2
2016-May-14 02:33N 48°19' W 122°30'3 3.0
2016-May-14 01:25N 48°21' W 122°34'4 2.0
2016-May-13 23:23N 48°24' W 122°38'1 1.4
2016-May-13 22:33N 48°24' W 122°39'0 0.4
2016-May-13 21:33N 48°25' W 122°40'  

Dump ship's entire track history